createdAt,value
2019-02-27T00:01:24.251Z,20.60
2019-02-27T00:02:58.980Z,20.72
2019-02-27T00:04:35.560Z,20.17
2019-02-27T00:06:09.840Z,18.77
2019-02-27T00:07:44.367Z,19.32
2019-02-27T00:09:19.011Z,19.92
2019-02-27T00:10:53.490Z,19.55
2019-02-27T00:12:28.476Z,18.20
2019-02-27T00:14:02.888Z,17.90
2019-02-27T00:15:37.946Z,19.82
2019-02-27T00:17:15.103Z,19.07
2019-02-27T00:18:49.649Z,21.00
2019-02-27T00:20:24.083Z,18.73
2019-02-27T00:21:58.560Z,20.32
2019-02-27T00:23:33.232Z,20.23
2019-02-27T00:25:07.967Z,18.77
2019-02-27T00:26:43.117Z,18.80
2019-02-27T00:28:18.248Z,21.35
2019-02-27T00:29:53.134Z,20.08
2019-02-27T00:31:27.525Z,20.05
2019-02-27T00:33:01.932Z,21.60
2019-02-27T00:34:36.573Z,20.77
2019-02-27T00:36:12.388Z,21.73
2019-02-27T00:37:51.729Z,22.15
2019-02-27T00:39:23.409Z,22.50
2019-02-27T00:40:57.790Z,23.38
2019-02-27T00:42:33.738Z,22.35
2019-02-27T00:44:08.343Z,21.25
2019-02-27T00:45:42.841Z,21.52
2019-02-27T00:47:20.028Z,21.17
2019-02-27T00:48:54.332Z,21.23
2019-02-27T00:50:28.818Z,20.90
2019-02-27T00:52:03.227Z,19.87
2019-02-27T00:53:37.855Z,19.40
2019-02-27T00:55:12.241Z,18.20
2019-02-27T00:56:46.649Z,17.85
2019-02-27T00:58:21.063Z,19.17
2019-02-27T00:59:55.434Z,19.32
2019-02-27T01:01:29.822Z,19.27
2019-02-27T01:03:04.282Z,18.57
2019-02-27T01:04:38.841Z,19.12
2019-02-27T01:06:14.767Z,19.50
2019-02-27T01:07:53.689Z,18.75
2019-02-27T01:09:26.211Z,18.27
2019-02-27T01:11:01.038Z,18.00
2019-02-27T01:12:35.554Z,18.77
2019-02-27T01:14:10.255Z,19.45
2019-02-27T01:15:44.823Z,19.52
2019-02-27T01:17:23.438Z,19.27
2019-02-27T01:18:55.668Z,19.75
2019-02-27T01:20:30.053Z,18.73
2019-02-27T01:22:04.433Z,19.23
2019-02-27T01:23:38.866Z,21.02
2019-02-27T01:25:13.706Z,19.80
2019-02-27T01:26:48.369Z,19.87
2019-02-27T01:28:22.749Z,20.97
2019-02-27T01:29:57.301Z,20.00
2019-02-27T01:31:31.791Z,20.15
2019-02-27T01:33:06.163Z,23.25
2019-02-27T01:34:44.220Z,24.70
2019-02-27T01:36:17.169Z,26.70
2019-02-27T01:37:51.617Z,25.48
2019-02-27T01:39:26.252Z,25.60
2019-02-27T01:41:00.772Z,25.20
2019-02-27T01:42:35.157Z,22.80
2019-02-27T01:44:11.065Z,23.45
2019-02-27T01:45:45.730Z,22.52
2019-02-27T01:47:20.389Z,21.82
2019-02-27T01:48:55.137Z,21.60
2019-02-27T01:50:38.221Z,22.87
2019-02-27T01:52:12.979Z,21.85
2019-02-27T01:53:47.433Z,24.30
2019-02-27T01:55:22.641Z,23.95
2019-02-27T01:56:57.178Z,25.40
2019-02-27T01:58:31.589Z,24.25
2019-02-27T02:00:06.825Z,27.05
2019-02-27T02:01:41.310Z,28.62
2019-02-27T02:03:15.723Z,27.50
2019-02-27T02:04:52.903Z,26.80
2019-02-27T02:06:26.806Z,24.27
2019-02-27T02:08:01.448Z,23.22
2019-02-27T02:09:37.600Z,21.77
2019-02-27T02:11:12.310Z,21.82
2019-02-27T02:12:49.930Z,21.68
2019-02-27T02:14:43.380Z,21.27
2019-02-27T02:16:53.232Z,20.52
2019-02-27T02:18:59.844Z,21.27
2019-02-27T02:21:14.778Z,21.15
2019-02-27T02:23:14.732Z,19.07
2019-02-27T02:25:28.720Z,19.55
2019-02-27T02:27:24.833Z,18.35
2019-02-27T02:29:37.045Z,19.87
2019-02-27T02:31:33.978Z,18.65
2019-02-27T02:33:30.932Z,19.15
2019-02-27T02:35:33.713Z,19.23
2019-02-27T02:37:48.922Z,20.40
2019-02-27T02:39:57.302Z,19.20
2019-02-27T02:41:59.994Z,19.07
2019-02-27T02:44:01.334Z,18.15
2019-02-27T02:46:01.367Z,18.57
2019-02-27T02:48:17.105Z,18.87
2019-02-27T02:50:17.405Z,18.05
2019-02-27T02:52:07.401Z,19.30
2019-02-27T02:54:08.548Z,18.45
2019-02-27T02:56:08.713Z,20.60
2019-02-27T02:58:12.235Z,18.75
2019-02-27T02:59:59.437Z,20.62
2019-02-27T03:01:40.645Z,19.23
2019-02-27T03:03:36.136Z,19.23
2019-02-27T03:05:31.029Z,19.17
2019-02-27T03:07:24.203Z,20.02
2019-02-27T03:09:21.654Z,18.62
2019-02-27T03:11:20.892Z,22.20
2019-02-27T03:13:26.910Z,20.65
2019-02-27T03:15:38.637Z,20.10
2019-02-27T03:17:31.849Z,21.12
2019-02-27T03:19:27.464Z,20.55
2019-02-27T03:21:28.787Z,19.92
2019-02-27T03:23:26.366Z,18.42
2019-02-27T03:25:07.021Z,20.27
2019-02-27T03:27:20.499Z,20.43
2019-02-27T03:29:32.415Z,20.45
2019-02-27T03:31:18.476Z,19.98
2019-02-27T03:33:27.281Z,19.73
2019-02-27T03:35:14.543Z,19.20
2019-02-27T03:37:25.504Z,19.70
2019-02-27T03:39:38.273Z,18.80
2019-02-27T03:41:44.391Z,20.32
2019-02-27T03:43:34.651Z,20.32
2019-02-27T03:45:48.932Z,21.77
2019-02-27T03:47:55.374Z,19.70
2019-02-27T03:49:49.526Z,21.62
2019-02-27T03:51:41.499Z,20.30
2019-02-27T03:53:22.675Z,20.95
2019-02-27T03:55:17.303Z,20.30
2019-02-27T03:57:27.493Z,20.92
2019-02-27T03:59:10.993Z,18.98
2019-02-27T04:01:14.543Z,21.00
2019-02-27T04:03:23.309Z,20.30
2019-02-27T04:05:57.967Z,20.88
2019-02-27T04:08:25.966Z,19.85
2019-02-27T04:10:00.398Z,20.00
2019-02-27T04:11:35.033Z,20.02
2019-02-27T04:13:09.753Z,21.65
2019-02-27T04:14:44.882Z,20.12
2019-02-27T04:16:19.510Z,20.80
2019-02-27T04:17:53.106Z,21.00
2019-02-27T04:19:27.931Z,21.93
2019-02-27T04:21:02.395Z,21.60
2019-02-27T04:22:37.694Z,23.12
2019-02-27T04:24:12.185Z,25.88
2019-02-27T04:25:46.827Z,26.07
2019-02-27T04:27:21.465Z,25.60
2019-02-27T04:28:56.010Z,24.52
2019-02-27T04:30:30.379Z,25.40
2019-02-27T04:32:04.821Z,23.90
2019-02-27T04:33:39.990Z,24.45
2019-02-27T04:35:14.458Z,23.42
2019-02-27T04:36:49.582Z,23.10
2019-02-27T04:38:25.001Z,24.67
2019-02-27T04:40:00.551Z,22.02
2019-02-27T04:41:34.961Z,24.35
2019-02-27T04:43:09.377Z,23.20
2019-02-27T04:44:43.818Z,25.05
2019-02-27T04:46:21.304Z,25.05
2019-02-27T04:47:54.613Z,25.30
2019-02-27T04:49:29.069Z,26.02
2019-02-27T04:51:03.451Z,25.62
2019-02-27T04:52:38.581Z,26.75
2019-02-27T04:54:13.654Z,26.52
2019-02-27T04:55:50.508Z,27.85
2019-02-27T04:57:24.166Z,25.70
2019-02-27T04:58:58.905Z,23.98
2019-02-27T05:00:33.382Z,24.75
2019-02-27T05:02:07.773Z,24.95
2019-02-27T05:03:42.459Z,23.15
2019-02-27T05:05:16.840Z,24.23
2019-02-27T05:06:51.628Z,22.48
2019-02-27T05:08:27.124Z,24.65
2019-02-27T05:10:02.176Z,24.77
2019-02-27T05:11:36.597Z,25.40
2019-02-27T05:13:11.002Z,26.82
2019-02-27T05:14:45.627Z,25.68
2019-02-27T05:16:20.239Z,25.68
2019-02-27T05:17:55.602Z,24.80
2019-02-27T05:19:30.738Z,25.50
2019-02-27T05:21:05.193Z,27.05
2019-02-27T05:22:39.561Z,27.10
2019-02-27T05:24:13.961Z,27.52
2019-02-27T05:25:48.593Z,30.75
2019-02-27T05:27:22.958Z,26.33
2019-02-27T05:28:57.609Z,24.15
2019-02-27T05:30:32.064Z,23.15
2019-02-27T05:32:06.426Z,22.70
2019-02-27T05:33:41.121Z,22.42
2019-02-27T05:35:15.583Z,22.20
2019-02-27T05:36:50.242Z,24.63
2019-02-27T05:38:24.806Z,22.87
2019-02-27T05:39:59.193Z,22.37
2019-02-27T05:41:34.042Z,22.65
2019-02-27T05:43:13.169Z,21.23
2019-02-27T05:44:44.710Z,22.32
2019-02-27T05:46:19.115Z,22.62
2019-02-27T05:47:53.641Z,21.75
2019-02-27T05:49:28.381Z,21.70
2019-02-27T05:51:04.908Z,21.07
2019-02-27T05:52:38.859Z,23.18
2019-02-27T05:54:13.630Z,22.50
2019-02-27T05:55:48.347Z,23.45
2019-02-27T05:57:23.293Z,22.93
2019-02-27T05:58:58.576Z,21.00
2019-02-27T06:00:33.037Z,22.10
2019-02-27T06:02:10.561Z,21.17
2019-02-27T06:03:44.096Z,23.70
2019-02-27T06:05:18.918Z,23.83
2019-02-27T06:06:53.634Z,23.98
2019-02-27T06:08:28.461Z,23.38
2019-02-27T06:10:02.986Z,22.55
2019-02-27T06:11:37.529Z,22.00
2019-02-27T06:13:14.070Z,23.30
2019-02-27T06:14:48.367Z,22.95
2019-02-27T06:16:22.743Z,21.45
2019-02-27T06:17:57.145Z,22.93
2019-02-27T06:19:33.707Z,22.58
2019-02-27T06:21:08.094Z,28.12
2019-02-27T06:22:42.891Z,27.30
2019-02-27T06:24:17.277Z,26.12
2019-02-27T06:25:51.749Z,29.40
2019-02-27T06:27:26.178Z,28.55
2019-02-27T06:29:00.966Z,28.02
2019-02-27T06:30:35.609Z,28.73
2019-02-27T06:32:12.202Z,27.70
2019-02-27T06:33:46.645Z,29.25
2019-02-27T06:35:21.102Z,28.02
2019-02-27T06:36:55.487Z,27.65
2019-02-27T06:38:29.881Z,27.60
2019-02-27T06:40:07.380Z,27.85
2019-02-27T06:41:41.366Z,27.60
2019-02-27T06:43:15.725Z,26.68
2019-02-27T06:44:50.097Z,25.40
2019-02-27T06:46:25.134Z,25.32
2019-02-27T06:48:00.158Z,22.75
2019-02-27T06:49:34.527Z,22.55
2019-02-27T06:51:08.951Z,22.32
2019-02-27T06:52:43.426Z,22.65
2019-02-27T06:54:18.366Z,20.80
2019-02-27T06:55:53.347Z,22.42
2019-02-27T06:57:27.841Z,21.82
2019-02-27T06:59:02.226Z,20.88
2019-02-27T07:00:37.006Z,22.73
2019-02-27T07:02:11.407Z,20.88
2019-02-27T07:03:46.456Z,21.50
2019-02-27T07:05:21.137Z,20.72
2019-02-27T07:06:56.031Z,19.95
2019-02-27T07:08:30.474Z,20.62
2019-02-27T07:10:05.268Z,22.20
2019-02-27T07:11:39.961Z,20.30
2019-02-27T07:13:14.326Z,21.50
2019-02-27T07:14:48.989Z,20.15
2019-02-27T07:16:23.776Z,20.92
2019-02-27T07:17:58.524Z,20.95
2019-02-27T07:19:32.982Z,21.15
2019-02-27T07:21:07.870Z,21.23
2019-02-27T07:22:45.483Z,20.50
2019-02-27T07:24:19.824Z,19.50
2019-02-27T07:25:54.587Z,21.02
2019-02-27T07:27:31.270Z,20.70
2019-02-27T07:29:05.195Z,20.75
2019-02-27T07:30:39.740Z,21.42
2019-02-27T07:32:15.929Z,20.43
2019-02-27T07:33:50.751Z,19.98
2019-02-27T07:35:27.573Z,21.27
2019-02-27T07:37:01.983Z,23.07
2019-02-27T07:38:36.374Z,23.07
2019-02-27T07:40:12.570Z,21.52
2019-02-27T07:41:47.017Z,21.52
2019-02-27T07:43:22.120Z,22.25
2019-02-27T07:44:56.541Z,20.02
2019-02-27T07:46:31.203Z,20.68
2019-02-27T07:48:05.592Z,20.40
2019-02-27T07:49:40.006Z,21.00
2019-02-27T07:51:14.424Z,20.02
2019-02-27T07:52:48.977Z,22.15
2019-02-27T07:54:24.066Z,22.42
2019-02-27T07:56:00.016Z,22.13
2019-02-27T07:57:34.410Z,21.10
2019-02-27T07:59:09.150Z,22.58
2019-02-27T08:00:43.530Z,22.00
2019-02-27T08:02:17.985Z,22.32
2019-02-27T08:03:53.059Z,20.55
2019-02-27T08:05:29.118Z,21.85
2019-02-27T08:07:04.175Z,20.95
2019-02-27T08:08:39.011Z,21.12
2019-02-27T08:10:19.193Z,22.42
2019-02-27T08:11:54.643Z,21.77
2019-02-27T08:13:30.302Z,22.42
2019-02-27T08:15:06.195Z,22.87
2019-02-27T08:16:41.291Z,21.50
2019-02-27T08:18:16.514Z,21.52
2019-02-27T08:19:50.902Z,21.93
2019-02-27T08:21:25.324Z,23.75
2019-02-27T08:22:59.774Z,21.10
2019-02-27T08:24:34.524Z,23.00
2019-02-27T08:26:08.986Z,22.30
2019-02-27T08:27:43.949Z,22.17
2019-02-27T08:29:18.888Z,22.98
2019-02-27T08:30:53.290Z,22.22
2019-02-27T08:32:27.695Z,21.93
2019-02-27T08:34:02.451Z,20.65
2019-02-27T08:35:37.625Z,21.40
2019-02-27T08:37:12.767Z,22.20
2019-02-27T08:38:48.028Z,21.37
2019-02-27T08:40:25.133Z,21.80
2019-02-27T08:42:03.373Z,22.57
2019-02-27T08:43:35.566Z,22.43
2019-02-27T08:45:19.323Z,21.80
2019-02-27T08:46:47.827Z,23.37
2019-02-27T08:48:22.222Z,24.10
2019-02-27T08:49:58.071Z,23.33
2019-02-27T08:51:32.725Z,22.47
2019-02-27T08:53:07.175Z,21.00
2019-02-27T08:54:42.269Z,21.67
2019-02-27T08:56:16.803Z,21.97
2019-02-27T08:57:55.870Z,21.30
2019-02-27T08:59:30.294Z,22.47
2019-02-27T09:01:09.412Z,21.87
2019-02-27T09:02:46.428Z,23.17
2019-02-27T09:04:27.267Z,21.50
2019-02-27T09:06:02.034Z,22.83
2019-02-27T09:07:38.485Z,21.57
2019-02-27T09:09:15.059Z,21.23
2019-02-27T09:10:51.940Z,21.17
2019-02-27T09:12:29.729Z,21.27
2019-02-27T09:14:05.182Z,22.87
2019-02-27T09:15:41.635Z,21.47
2019-02-27T09:17:16.238Z,21.60
2019-02-27T09:18:55.066Z,21.23
2019-02-27T09:20:30.533Z,21.57
2019-02-27T09:22:05.861Z,20.53
2019-02-27T09:23:40.644Z,21.20
2019-02-27T09:25:16.128Z,21.33
2019-02-27T09:26:51.185Z,21.47
2019-02-27T09:28:29.612Z,21.77
2019-02-27T09:30:05.640Z,22.17
2019-02-27T09:31:50.972Z,21.33
2019-02-27T09:33:24.924Z,21.20
2019-02-27T09:35:11.948Z,20.07
2019-02-27T09:36:49.169Z,20.43
2019-02-27T09:38:24.953Z,20.67
2019-02-27T09:40:05.728Z,20.53
2019-02-27T09:41:46.106Z,20.80
2019-02-27T09:43:16.990Z,21.67
2019-02-27T09:47:32.780Z,20.63
2019-02-27T09:49:34.555Z,20.80
2019-02-27T09:51:48.554Z,19.70
2019-02-27T09:53:23.165Z,20.10
2019-02-27T09:54:57.570Z,21.37
2019-02-27T09:56:32.853Z,20.53
2019-02-27T09:58:11.226Z,19.70
2019-02-27T09:59:45.170Z,21.20
2019-02-27T10:01:20.042Z,20.40
2019-02-27T10:02:54.827Z,20.80
2019-02-27T10:04:29.875Z,20.97
2019-02-27T10:06:05.007Z,19.87
2019-02-27T10:07:39.832Z,21.23
2019-02-27T10:09:17.373Z,21.67
2019-02-27T10:10:51.985Z,21.10
2019-02-27T10:12:27.740Z,20.07
2019-02-27T10:14:02.510Z,22.40
2019-02-27T10:15:37.333Z,21.77
2019-02-27T10:17:11.768Z,21.50
2019-02-27T10:18:46.233Z,23.07
2019-02-27T10:20:21.175Z,22.17
2019-02-27T10:21:55.728Z,21.40
2019-02-27T10:23:31.329Z,22.33
2019-02-27T10:25:08.632Z,21.90
2019-02-27T10:26:47.194Z,20.80
2019-02-27T10:28:41.499Z,21.13
2019-02-27T10:30:16.789Z,21.17
2019-02-27T10:31:51.976Z,36.13
2019-02-27T10:33:27.335Z,22.13
2019-02-27T10:35:03.273Z,20.50
2019-02-27T10:36:45.170Z,22.27
2019-02-27T10:38:14.375Z,19.60
2019-02-27T10:39:49.162Z,20.07
2019-02-27T10:41:23.770Z,23.23
2019-02-27T10:42:58.478Z,23.67
2019-02-27T10:44:33.939Z,24.67
2019-02-27T10:46:09.352Z,24.17
2019-02-27T10:47:44.119Z,24.47
2019-02-27T10:49:21.521Z,22.60
2019-02-27T10:50:55.516Z,20.73
2019-02-27T10:52:30.314Z,21.37
2019-02-27T10:54:05.591Z,21.47
2019-02-27T10:55:41.028Z,20.30
2019-02-27T10:57:15.875Z,18.97
2019-02-27T10:58:51.187Z,18.03
2019-02-27T11:00:29.921Z,20.43
2019-02-27T11:02:04.808Z,19.73
2019-02-27T11:03:40.098Z,18.90
2019-02-27T11:05:17.592Z,20.07
2019-02-27T11:06:51.812Z,19.80
2019-02-27T11:08:29.058Z,19.33
2019-02-27T11:10:03.397Z,18.83
2019-02-27T11:11:38.428Z,19.30
2019-02-27T11:13:13.549Z,19.83
2019-02-27T11:14:48.715Z,18.60
2019-02-27T11:16:23.523Z,19.33
2019-02-27T11:18:04.680Z,18.93
2019-02-27T11:19:44.330Z,20.30
2019-02-27T11:21:19.519Z,19.33
2019-02-27T11:22:54.555Z,18.90
2019-02-27T11:24:29.615Z,19.03
2019-02-27T11:26:38.382Z,19.07
2019-02-27T11:28:13.451Z,20.53
2019-02-27T11:29:48.241Z,19.57
2019-02-27T11:31:23.081Z,19.73
2019-02-27T11:32:59.768Z,20.63
2019-02-27T11:34:34.939Z,19.57
2019-02-27T11:36:10.010Z,19.17
2019-02-27T11:37:47.474Z,18.47
2019-02-27T11:39:22.235Z,20.20
2019-02-27T11:40:57.364Z,20.27
2019-02-27T11:42:32.758Z,18.40
2019-02-27T11:44:07.827Z,19.40
2019-02-27T11:45:42.633Z,17.57
2019-02-27T11:47:17.663Z,17.37
2019-02-27T11:48:52.714Z,16.93
2019-02-27T11:50:28.093Z,18.20
2019-02-27T11:52:02.987Z,18.93
2019-02-27T11:53:37.838Z,18.27
2019-02-27T11:55:15.582Z,17.90
2019-02-27T11:57:00.065Z,16.70
2019-02-27T11:58:38.237Z,16.97
2019-02-27T12:00:23.682Z,17.07
2019-02-27T12:01:59.919Z,17.17
2019-02-27T12:03:35.203Z,17.00
2019-02-27T12:05:12.631Z,17.23
2019-02-27T12:06:47.657Z,15.03
2019-02-27T12:08:26.778Z,16.40
2019-02-27T12:10:01.843Z,15.53
2019-02-27T12:11:37.649Z,16.47
2019-02-27T12:13:14.307Z,16.57
2019-02-27T12:14:49.687Z,15.67
2019-02-27T12:16:25.364Z,17.03
2019-02-27T12:18:01.628Z,14.33
2019-02-27T12:19:36.933Z,15.93
2019-02-27T12:21:11.891Z,16.10
2019-02-27T12:22:47.467Z,16.10
2019-02-27T12:24:22.264Z,16.33
2019-02-27T12:25:57.284Z,16.43
2019-02-27T12:27:48.299Z,15.70
2019-02-27T12:29:09.411Z,16.40
2019-02-27T12:30:44.534Z,15.60
2019-02-27T12:32:21.942Z,14.60
2019-02-27T12:33:56.574Z,14.40
2019-02-27T12:35:31.797Z,15.63
2019-02-27T12:37:16.369Z,16.13
2019-02-27T12:38:43.872Z,15.87
2019-02-27T12:40:23.890Z,14.70
2019-02-27T12:41:57.565Z,13.30
2019-02-27T12:43:32.822Z,13.13
2019-02-27T12:45:11.993Z,13.43
2019-02-27T12:46:47.024Z,13.00
2019-02-27T12:48:21.841Z,12.53
2019-02-27T12:49:56.827Z,13.47
2019-02-27T12:51:31.840Z,13.50
2019-02-27T12:53:07.063Z,14.23
2019-02-27T12:54:41.975Z,14.07
2019-02-27T12:56:17.008Z,13.50
2019-02-27T12:57:53.083Z,14.67
2019-02-27T12:59:30.700Z,13.47
2019-02-27T13:01:07.475Z,12.10
2019-02-27T13:02:42.265Z,12.67
2019-02-27T13:04:19.819Z,12.90
2019-02-27T13:05:54.041Z,12.43
2019-02-27T13:07:28.887Z,12.33
2019-02-27T13:09:04.779Z,9.57
2019-02-27T13:10:39.853Z,7.80
2019-02-27T13:12:14.859Z,7.30
2019-02-27T13:13:51.288Z,7.57
2019-02-27T13:15:26.578Z,7.10
2019-02-27T13:17:01.510Z,6.53
2019-02-27T13:18:36.787Z,7.27
2019-02-27T13:20:16.090Z,7.37
2019-02-27T13:21:52.326Z,6.60
2019-02-27T13:23:27.383Z,7.57
2019-02-27T13:25:02.644Z,8.10
2019-02-27T13:26:37.775Z,8.57
2019-02-27T13:28:14.667Z,8.67
2019-02-27T13:29:49.101Z,8.30
2019-02-27T13:31:23.886Z,7.70
2019-02-27T13:33:01.252Z,6.93
2019-02-27T13:34:35.925Z,6.70
2019-02-27T13:36:12.809Z,6.53
2019-02-27T13:37:47.788Z,6.70
2019-02-27T13:39:25.698Z,6.07
2019-02-27T13:41:00.033Z,6.27
2019-02-27T13:42:35.070Z,6.20
2019-02-27T13:44:09.855Z,6.67
2019-02-27T13:45:47.335Z,7.00
2019-02-27T13:47:21.432Z,6.50
2019-02-27T13:48:56.469Z,6.00
2019-02-27T13:50:31.422Z,5.83
2019-02-27T13:52:06.399Z,7.10
2019-02-27T13:53:41.190Z,6.97
2019-02-27T13:55:16.962Z,7.33
2019-02-27T13:56:51.980Z,7.13
2019-02-27T13:58:26.874Z,7.23
2019-02-27T14:00:01.920Z,7.23
2019-02-27T14:01:36.787Z,7.10
2019-02-27T14:03:12.834Z,6.60
2019-02-27T14:04:48.769Z,7.07
2019-02-27T14:06:23.915Z,6.10
2019-02-27T14:07:59.098Z,6.73
2019-02-27T14:09:35.129Z,7.00
2019-02-27T14:11:09.912Z,7.43
2019-02-27T14:12:45.670Z,6.50
2019-02-27T14:14:20.768Z,6.83
2019-02-27T14:15:58.106Z,7.70
2019-02-27T14:17:32.330Z,7.27
2019-02-27T14:19:07.121Z,7.70
2019-02-27T14:20:41.934Z,7.90
2019-02-27T14:22:16.763Z,7.50
2019-02-27T14:23:51.561Z,7.73
2019-02-27T14:25:31.122Z,8.10
2019-02-27T14:27:04.270Z,8.00
2019-02-27T14:28:39.102Z,8.10
2019-02-27T14:30:21.391Z,7.70
2019-02-27T14:31:56.164Z,8.83
2019-02-27T14:33:31.183Z,8.43
2019-02-27T14:35:06.293Z,8.80
2019-02-27T14:36:42.496Z,8.30
2019-02-27T14:38:17.884Z,8.27
2019-02-27T14:39:53.162Z,8.43
2019-02-27T14:41:28.198Z,7.70
2019-02-27T14:43:03.239Z,7.77
2019-02-27T14:44:38.297Z,7.63
2019-02-27T14:46:13.245Z,8.27
2019-02-27T14:47:48.136Z,8.30
2019-02-27T14:49:23.894Z,8.80
2019-02-27T14:50:59.828Z,8.17
2019-02-27T14:52:34.881Z,7.33
2019-02-27T14:54:09.922Z,7.47
2019-02-27T14:55:51.361Z,8.10
2019-02-27T14:57:26.325Z,7.77
2019-02-27T14:59:01.133Z,7.93
2019-02-27T15:00:39.833Z,7.97
2019-02-27T15:02:13.021Z,7.80
2019-02-27T15:03:47.838Z,8.07
2019-02-27T15:05:22.827Z,7.97
2019-02-27T15:06:57.611Z,8.13
2019-02-27T15:08:32.434Z,8.17
2019-02-27T15:10:08.029Z,8.80
2019-02-27T15:11:44.938Z,8.23
2019-02-27T15:13:19.494Z,8.63
2019-02-27T15:14:54.571Z,7.30
2019-02-27T15:16:29.393Z,7.83
2019-02-27T15:18:05.156Z,8.17
2019-02-27T15:19:39.948Z,8.17
2019-02-27T15:21:14.737Z,7.83
2019-02-27T15:22:52.504Z,7.83
2019-02-27T15:24:26.122Z,7.73
2019-02-27T15:26:01.419Z,7.70
2019-02-27T15:27:36.457Z,7.63
2019-02-27T15:29:11.781Z,7.43
2019-02-27T15:30:47.389Z,8.97
2019-02-27T15:32:22.236Z,7.60
2019-02-27T15:33:57.265Z,7.20
2019-02-27T15:35:32.513Z,7.80
2019-02-27T15:37:07.369Z,7.60
2019-02-27T15:38:43.578Z,7.30
2019-02-27T15:40:20.975Z,7.80
2019-02-27T15:41:55.779Z,6.87
2019-02-27T15:43:30.571Z,6.87
2019-02-27T15:45:10.018Z,6.77
2019-02-27T15:46:43.361Z,7.30
2019-02-27T15:48:17.813Z,6.67
2019-02-27T15:49:52.178Z,6.77
2019-02-27T15:51:28.429Z,6.63
2019-02-27T15:53:03.060Z,6.80
2019-02-27T15:54:38.111Z,6.10
2019-02-27T15:56:12.991Z,6.40
2019-02-27T15:57:52.198Z,7.07
2019-02-27T15:59:24.701Z,6.13
2019-02-27T16:00:59.497Z,6.23
2019-02-27T16:02:36.567Z,5.40
2019-02-27T16:04:10.102Z,5.80
2019-02-27T16:05:44.466Z,5.50
2019-02-27T16:07:18.842Z,6.00
2019-02-27T16:08:57.475Z,5.43
2019-02-27T16:10:29.458Z,5.23
2019-02-27T16:12:04.450Z,4.93
2019-02-27T16:13:39.261Z,5.17
2019-02-27T16:15:16.941Z,4.87
2019-02-27T16:16:51.169Z,5.17
2019-02-27T16:18:25.709Z,4.90
2019-02-27T16:20:00.412Z,5.33
2019-02-27T16:21:34.797Z,5.10
2019-02-27T16:23:09.646Z,5.10
2019-02-27T16:24:44.558Z,4.47
2019-02-27T16:26:19.415Z,4.77
2019-02-27T16:27:57.044Z,5.20
2019-02-27T16:29:32.580Z,4.90
2019-02-27T16:31:07.850Z,5.30
2019-02-27T16:32:48.005Z,4.80
2019-02-27T16:34:19.977Z,5.20
2019-02-27T16:35:56.186Z,4.70
2019-02-27T16:37:31.549Z,5.13
2019-02-27T16:39:08.338Z,4.53
2019-02-27T16:40:43.457Z,5.37
2019-02-27T16:42:18.512Z,5.87
2019-02-27T16:43:52.933Z,8.07
2019-02-27T16:45:32.423Z,7.80
2019-02-27T16:47:04.490Z,8.17
2019-02-27T16:48:38.863Z,9.43
2019-02-27T16:50:16.070Z,10.47
2019-02-27T16:51:50.451Z,9.90
2019-02-27T16:53:24.899Z,10.47
2019-02-27T16:55:01.369Z,11.17
2019-02-27T16:56:35.427Z,10.33
2019-02-27T16:58:10.063Z,11.13
2019-02-27T16:59:45.558Z,9.63
2019-02-27T17:01:20.694Z,8.73
2019-02-27T17:02:56.946Z,8.60
2019-02-27T17:04:33.981Z,8.23
2019-02-27T17:06:07.526Z,7.47
2019-02-27T17:07:42.315Z,7.63
2019-02-27T17:09:17.390Z,6.60
2019-02-27T17:10:52.544Z,6.57
2019-02-27T17:12:27.386Z,6.70
2019-02-27T17:14:02.105Z,6.63
2019-02-27T17:15:37.286Z,6.10
2019-02-27T17:17:12.085Z,5.20
2019-02-27T17:18:47.218Z,4.20
2019-02-27T17:20:24.050Z,5.37
2019-02-27T17:21:59.634Z,5.30
2019-02-27T17:23:34.461Z,4.70
2019-02-27T17:25:12.170Z,4.57
2019-02-27T17:26:46.957Z,4.72
2019-02-27T17:28:22.373Z,4.57
2019-02-27T17:29:59.660Z,4.62
2019-02-27T17:31:35.525Z,4.47
2019-02-27T17:33:10.293Z,4.87
2019-02-27T17:34:47.541Z,5.22
2019-02-27T17:36:21.729Z,5.90
2019-02-27T17:37:56.182Z,5.60
2019-02-27T17:39:30.823Z,4.37
2019-02-27T17:41:08.958Z,5.37
2019-02-27T17:42:42.213Z,5.83
2019-02-27T17:44:17.165Z,6.03
2019-02-27T17:45:51.892Z,5.83
2019-02-27T17:47:28.822Z,5.40
2019-02-27T17:49:03.173Z,5.35
2019-02-27T17:50:37.580Z,5.47
2019-02-27T17:52:14.811Z,5.92
2019-02-27T17:53:48.381Z,5.40
2019-02-27T17:55:24.318Z,5.35
2019-02-27T17:56:59.062Z,5.40
2019-02-27T17:58:34.957Z,5.87
2019-02-27T18:00:19.500Z,5.83
2019-02-27T18:01:58.499Z,5.03
2019-02-27T18:03:30.115Z,5.62
2019-02-27T18:05:05.309Z,5.58
2019-02-27T18:06:40.791Z,5.53
2019-02-27T18:08:17.065Z,5.37
2019-02-27T18:09:52.462Z,5.67
2019-02-27T18:11:27.393Z,5.92
2019-02-27T18:13:02.225Z,6.90
2019-02-27T18:14:37.330Z,6.83
2019-02-27T18:16:13.341Z,7.37
2019-02-27T18:17:48.315Z,6.80
2019-02-27T18:19:23.119Z,6.72
2019-02-27T18:20:59.489Z,7.17
2019-02-27T18:22:34.832Z,7.40
2019-02-27T18:24:10.422Z,14.70
2019-02-27T18:25:45.226Z,9.85
2019-02-27T18:27:24.681Z,10.85
2019-02-27T18:28:58.050Z,11.45
2019-02-27T18:30:32.859Z,13.35
2019-02-27T18:32:07.730Z,15.45
2019-02-27T18:33:42.871Z,13.58
2019-02-27T18:35:18.678Z,13.08
2019-02-27T18:36:54.020Z,16.30
2019-02-27T18:38:28.842Z,19.52
2019-02-27T18:40:04.054Z,18.45
2019-02-27T18:41:39.805Z,19.85
2019-02-27T18:43:14.746Z,18.95
2019-02-27T18:44:50.191Z,17.50
2019-02-27T18:46:25.543Z,15.65
2019-02-27T18:48:00.535Z,15.03
2019-02-27T18:49:35.351Z,16.48
2019-02-27T18:51:10.891Z,16.02
2019-02-27T18:52:46.191Z,16.90
2019-02-27T18:54:22.578Z,15.65
2019-02-27T18:55:57.608Z,15.55
2019-02-27T18:57:33.072Z,14.28
2019-02-27T18:59:08.258Z,13.40
2019-02-27T19:00:43.292Z,12.10
2019-02-27T19:02:20.563Z,13.30
2019-02-27T19:04:00.300Z,12.28
2019-02-27T19:05:33.383Z,11.93
2019-02-27T19:07:08.980Z,12.47
2019-02-27T19:08:43.782Z,12.68
2019-02-27T19:10:19.133Z,12.00
2019-02-27T19:11:54.581Z,11.83
2019-02-27T19:13:31.801Z,11.03
2019-02-27T19:15:11.360Z,10.48
2019-02-27T19:16:46.209Z,10.53
2019-02-27T19:18:21.305Z,10.43
2019-02-27T19:19:56.485Z,10.60
2019-02-27T19:21:33.529Z,11.73
2019-02-27T19:23:08.789Z,10.82
2019-02-27T19:24:44.104Z,10.43
2019-02-27T19:26:19.651Z,11.25
2019-02-27T19:27:54.903Z,11.18
2019-02-27T19:29:31.924Z,11.28
2019-02-27T19:31:07.513Z,10.72
2019-02-27T19:32:42.736Z,10.23
2019-02-27T19:34:17.550Z,11.20
2019-02-27T19:35:55.855Z,11.10
2019-02-27T19:37:29.929Z,10.05
2019-02-27T19:39:06.863Z,10.55
2019-02-27T19:40:41.799Z,11.40
2019-02-27T19:42:16.661Z,11.05
2019-02-27T19:43:54.820Z,10.72
2019-02-27T19:45:28.506Z,11.35
2019-02-27T19:47:03.324Z,11.38
2019-02-27T19:48:38.119Z,11.93
2019-02-27T19:50:13.186Z,12.10
2019-02-27T19:51:48.309Z,13.88
2019-02-27T19:53:23.607Z,13.13
2019-02-27T19:54:58.406Z,14.28
2019-02-27T19:56:35.508Z,13.80
2019-02-27T19:58:10.555Z,14.47
2019-02-27T19:59:45.767Z,13.80
2019-02-27T20:01:20.899Z,14.28
2019-02-27T20:03:01.176Z,13.83
2019-02-27T20:04:33.452Z,12.50
2019-02-27T20:06:08.867Z,12.03
2019-02-27T20:07:44.292Z,9.65
2019-02-27T20:09:20.492Z,11.22
2019-02-27T20:10:55.431Z,10.13
2019-02-27T20:12:30.229Z,10.55
2019-02-27T20:14:05.967Z,9.83
2019-02-27T20:15:42.776Z,10.40
2019-02-27T20:17:18.064Z,9.85
2019-02-27T20:18:55.043Z,11.12
2019-02-27T20:20:30.100Z,11.55
2019-02-27T20:22:04.734Z,10.80
2019-02-27T20:23:39.144Z,10.45
2019-02-27T20:25:14.129Z,10.85
2019-02-27T20:26:51.411Z,10.80
2019-02-27T20:28:24.910Z,10.80
2019-02-27T20:29:59.284Z,11.73
2019-02-27T20:31:33.762Z,11.03
2019-02-27T20:33:08.213Z,11.78
2019-02-27T20:34:45.615Z,11.70
2019-02-27T20:36:18.811Z,12.35
2019-02-27T20:37:53.280Z,11.68
2019-02-27T20:39:28.406Z,13.58
2019-02-27T20:41:06.018Z,12.75
2019-02-27T20:42:39.254Z,12.28
2019-02-27T20:44:13.637Z,11.28
2019-02-27T20:45:48.160Z,14.20
2019-02-27T20:47:23.006Z,13.58
2019-02-27T20:48:58.061Z,12.00
2019-02-27T20:50:37.850Z,10.68
2019-02-27T20:52:14.908Z,10.72
2019-02-27T20:53:48.707Z,10.93
2019-02-27T20:55:23.138Z,10.13
2019-02-27T20:56:57.911Z,11.20
2019-02-27T20:58:32.364Z,10.98
2019-02-27T21:00:08.507Z,13.05
2019-02-27T21:01:46.747Z,13.78
2019-02-27T21:03:19.048Z,13.62
2019-02-27T21:04:53.786Z,15.05
2019-02-27T21:06:28.806Z,16.15
2019-02-27T21:08:03.186Z,14.13
2019-02-27T21:09:37.933Z,14.00